createdAt,value
2019-04-22T00:02:13.809Z,7.44
2019-04-22T00:08:03.173Z,7.44
2019-04-22T00:13:25.998Z,7.36
2019-04-22T00:18:56.299Z,7.40
2019-04-22T00:24:01.202Z,7.45
2019-04-22T00:34:42.691Z,7.95
2019-04-22T00:39:58.889Z,8.92
2019-04-22T00:45:41.812Z,8.54
2019-04-22T00:50:51.504Z,8.49
2019-04-22T01:01:31.831Z,8.44
2019-04-22T01:06:51.330Z,8.46
2019-04-22T01:12:13.637Z,8.62
2019-04-22T01:17:36.352Z,8.46
2019-04-22T01:22:52.141Z,8.55
2019-04-22T01:28:01.983Z,8.31
2019-04-22T01:33:16.056Z,8.30
2019-04-22T01:38:51.191Z,8.63
2019-04-22T01:44:21.556Z,8.52
2019-04-22T01:49:33.927Z,8.76
2019-04-22T01:54:54.619Z,8.60
2019-04-22T02:00:06.806Z,8.31
2019-04-22T02:05:35.786Z,8.83
2019-04-22T02:11:02.338Z,8.28
2019-04-22T02:16:23.112Z,8.48
2019-04-22T02:21:38.218Z,8.64
2019-04-22T02:26:56.794Z,8.62
2019-04-22T02:32:43.944Z,8.43
2019-04-22T02:37:35.342Z,8.19
2019-04-22T02:43:12.662Z,8.00
2019-04-22T02:54:15.143Z,7.78
2019-04-22T02:59:12.446Z,7.60
2019-04-22T03:04:37.479Z,7.59
2019-04-22T03:09:50.743Z,7.47
2019-04-22T03:20:24.806Z,7.61
2019-04-22T03:31:40.336Z,7.50
2019-04-22T03:42:05.658Z,7.47
2019-04-22T03:47:32.075Z,7.40
2019-04-22T03:52:39.120Z,7.56
2019-04-22T04:24:59.927Z,8.40
2019-04-22T04:40:46.157Z,8.92
2019-04-22T04:46:06.124Z,9.13
2019-04-22T04:56:46.617Z,9.88
2019-04-22T05:02:17.418Z,12.14
2019-04-22T05:18:08.674Z,14.53
2019-04-22T05:28:44.957Z,15.91
2019-04-22T05:34:04.356Z,17.11
2019-04-22T05:39:37.026Z,17.83
2019-04-22T05:44:41.127Z,18.29
2019-04-22T05:50:02.241Z,18.87
2019-04-22T05:55:26.818Z,19.28
2019-04-22T06:01:13.110Z,19.92
2019-04-22T06:06:07.789Z,20.21
2019-04-22T06:11:25.655Z,20.25
2019-04-22T06:16:45.783Z,21.13
2019-04-22T06:22:12.834Z,21.29
2019-04-22T06:27:31.009Z,20.95
2019-04-22T06:32:47.299Z,21.90
2019-04-22T06:38:28.214Z,22.24
2019-04-22T06:43:29.594Z,23.10
2019-04-22T06:48:48.961Z,23.57
2019-04-22T06:54:07.297Z,22.96
2019-04-22T06:59:34.414Z,24.50
2019-04-22T07:04:55.148Z,23.75
2019-04-22T07:10:23.217Z,23.76
2019-04-22T07:20:57.858Z,23.68
2019-04-22T07:31:41.125Z,22.75
2019-04-22T07:37:18.211Z,24.18
2019-04-22T07:42:19.188Z,25.12
2019-04-22T07:52:51.459Z,25.18
2019-04-22T07:58:18.591Z,26.04
2019-04-22T08:03:49.974Z,24.63
2019-04-22T08:09:01.838Z,24.21
2019-04-22T08:14:14.209Z,24.60
2019-04-22T08:19:35.467Z,23.56
2019-04-22T08:24:56.138Z,23.85
2019-04-22T08:30:20.375Z,24.32
2019-04-22T08:35:52.270Z,24.07
2019-04-22T08:46:40.425Z,24.84
2019-04-22T08:52:01.330Z,24.43
2019-04-22T08:57:31.864Z,25.05
2019-04-22T09:02:46.772Z,24.52
2019-04-22T09:08:09.355Z,25.40
2019-04-22T09:13:26.371Z,24.78
2019-04-22T09:18:59.596Z,25.06
2019-04-22T09:24:06.835Z,25.66
2019-04-22T09:29:26.994Z,24.91
2019-04-22T09:34:56.281Z,25.69
2019-04-22T09:40:11.899Z,25.21
2019-04-22T09:45:21.615Z,24.51
2019-04-22T09:56:04.003Z,23.33
2019-04-22T10:06:40.578Z,23.60
2019-04-22T10:12:02.569Z,24.18
2019-04-22T10:17:26.179Z,23.52
2019-04-22T10:28:14.732Z,24.15
2019-04-22T10:33:25.803Z,23.12
2019-04-22T10:38:26.285Z,23.12
2019-04-22T10:43:45.385Z,24.27
2019-04-22T10:49:04.291Z,24.28
2019-04-22T10:54:23.341Z,23.75
2019-04-22T10:59:42.668Z,24.27
2019-04-22T11:05:02.052Z,24.80
2019-04-22T11:10:41.218Z,24.36
2019-04-22T11:15:42.511Z,24.31
2019-04-22T11:21:01.921Z,23.75
2019-04-22T11:26:21.915Z,24.02
2019-04-22T11:31:42.414Z,24.01
2019-04-22T11:37:01.120Z,24.33
2019-04-22T11:42:20.440Z,24.41
2019-04-22T11:47:39.374Z,24.72
2019-04-22T11:52:58.604Z,24.91
2019-04-22T11:58:17.274Z,25.10
2019-04-22T12:03:35.970Z,24.01
2019-04-22T12:08:54.591Z,24.26
2019-04-22T12:14:13.959Z,24.38
2019-04-22T12:19:33.478Z,24.49
2019-04-22T12:24:54.403Z,24.23
2019-04-22T12:30:14.823Z,24.42
2019-04-22T12:35:34.583Z,24.85
2019-04-22T12:41:00.252Z,24.29
2019-04-22T12:46:16.330Z,24.75
2019-04-22T12:51:36.645Z,24.94
2019-04-22T12:56:55.751Z,24.78
2019-04-22T13:02:15.486Z,24.43
2019-04-22T13:07:34.096Z,24.62
2019-04-22T13:12:55.125Z,24.70
2019-04-22T13:18:26.169Z,24.50
2019-04-22T13:23:34.121Z,24.24
2019-04-22T13:28:52.596Z,23.75
2019-04-22T13:34:24.004Z,24.10
2019-04-22T13:39:34.900Z,24.50
2019-04-22T13:44:53.615Z,24.73
2019-04-22T13:50:49.902Z,24.25
2019-04-22T13:55:56.617Z,24.23
2019-04-22T14:00:56.621Z,24.39
2019-04-22T14:06:16.443Z,24.53
2019-04-22T14:11:43.906Z,24.72
2019-04-22T14:16:55.533Z,24.67
2019-04-22T14:22:14.078Z,24.24
2019-04-22T14:27:46.179Z,24.48
2019-04-22T14:32:54.105Z,24.20
2019-04-22T14:38:14.098Z,24.16
2019-04-22T14:44:02.343Z,24.32
2019-04-22T14:49:19.491Z,24.39
2019-04-22T14:54:26.816Z,24.26
2019-04-22T14:59:33.565Z,24.17
2019-04-22T15:04:52.281Z,24.07
2019-04-22T15:10:11.407Z,24.03
2019-04-22T15:15:51.111Z,24.08
2019-04-22T15:21:11.015Z,24.24
2019-04-22T15:26:30.663Z,23.87
2019-04-22T15:31:49.493Z,23.83
2019-04-22T15:37:08.420Z,23.90
2019-04-22T15:42:30.725Z,23.77
2019-04-22T15:47:48.229Z,23.83
2019-04-22T15:53:07.712Z,23.85
2019-04-22T15:58:28.038Z,23.71
2019-04-22T16:03:47.108Z,23.48
2019-04-22T16:09:11.056Z,23.46
2019-04-22T16:14:38.896Z,23.37
2019-04-22T16:19:50.927Z,23.32
2019-04-22T16:25:20.006Z,23.30
2019-04-22T16:30:39.484Z,23.17
2019-04-22T16:35:58.753Z,23.15
2019-04-22T16:41:18.825Z,23.02
2019-04-22T16:46:37.739Z,22.81
2019-04-22T16:51:56.354Z,22.63
2019-04-22T16:57:15.804Z,22.52
2019-04-22T17:02:46.505Z,22.40
2019-04-22T17:08:04.146Z,22.29
2019-04-22T17:13:26.861Z,22.07
2019-04-22T17:18:43.565Z,21.86
2019-04-22T17:24:03.565Z,21.61
2019-04-22T17:29:22.795Z,21.56
2019-04-22T17:34:41.481Z,21.50
2019-04-22T17:40:14.695Z,21.41
2019-04-22T17:45:47.703Z,21.44
2019-04-22T17:51:16.593Z,21.31
2019-04-22T17:56:27.930Z,21.18
2019-04-22T18:01:43.936Z,21.10
2019-04-22T18:07:13.364Z,20.85
2019-04-22T18:12:35.460Z,20.64
2019-04-22T18:17:55.557Z,20.32
2019-04-22T18:22:59.608Z,20.29
2019-04-22T18:28:30.316Z,20.13
2019-04-22T18:33:46.484Z,19.61
2019-04-22T18:39:16.284Z,19.64
2019-04-22T18:44:27.227Z,19.32
2019-04-22T18:49:47.605Z,19.28
2019-04-22T18:55:28.087Z,19.04
2019-04-22T19:00:41.849Z,18.73
2019-04-22T19:06:31.932Z,18.24
2019-04-22T19:11:51.719Z,17.89
2019-04-22T19:17:12.170Z,17.89
2019-04-22T19:22:25.113Z,17.45
2019-04-22T19:27:40.495Z,17.44
2019-04-22T19:33:06.194Z,17.34
2019-04-22T19:38:15.515Z,16.91
2019-04-22T19:43:46.518Z,16.60
2019-04-22T19:49:13.620Z,16.94
2019-04-22T19:54:23.278Z,16.83
2019-04-22T19:59:45.417Z,16.64
2019-04-22T20:05:23.164Z,16.53
2019-04-22T20:10:30.022Z,16.59
2019-04-22T20:15:43.327Z,16.49
2019-04-22T20:21:19.397Z,16.60
2019-04-22T20:26:40.701Z,16.44
2019-04-22T20:31:59.178Z,16.24
2019-04-22T20:37:22.279Z,16.02
2019-04-22T20:42:45.173Z,16.12
2019-04-22T20:47:52.503Z,15.80
2019-04-22T20:53:25.472Z,15.82
2019-04-22T20:58:43.185Z,15.60
2019-04-22T21:03:47.048Z,15.30
2019-04-22T21:09:18.012Z,15.17
2019-04-22T21:14:32.438Z,14.81
2019-04-22T21:20:06.901Z,14.93
2019-04-22T21:25:14.085Z,14.75
2019-04-22T21:30:41.413Z,14.30
2019-04-22T21:36:10.241Z,14.40
2019-04-22T21:41:20.440Z,13.97
2019-04-22T21:46:42.298Z,13.56
2019-04-22T21:52:00.196Z,13.22
2019-04-22T21:57:48.900Z,13.17
2019-04-22T22:03:05.665Z,13.52
2019-04-22T22:08:27.329Z,12.93
2019-04-22T22:13:38.707Z,12.62
2019-04-22T22:19:04.009Z,12.51
2019-04-22T22:24:27.237Z,13.05
2019-04-22T22:29:57.129Z,13.04
2019-04-22T22:35:03.482Z,13.16
2019-04-22T22:40:09.265Z,13.05
2019-04-22T22:45:33.874Z,12.51
2019-04-22T22:51:06.608Z,12.73
2019-04-22T22:56:25.402Z,12.76
2019-04-22T23:01:45.440Z,12.34
2019-04-22T23:07:11.419Z,12.04
2019-04-22T23:17:29.420Z,11.22
2019-04-22T23:23:09.383Z,11.55
2019-04-22T23:28:22.705Z,11.40
2019-04-22T23:33:42.402Z,10.88
2019-04-22T23:39:10.840Z,10.70
2019-04-22T23:44:24.981Z,10.66
2019-04-22T23:49:42.630Z,10.24
2019-04-22T23:55:11.506Z,10.03
